Startpagina
METAR-TAF:

METAR-TAF

Vliegvelden :

Pietersburg, Zuid-Afrika

breedte: 23-50-43S, lengte: 29-27-31E, hoogte: 1242 m

Actueel weer

Dit bericht is 52 minuten geleden gemaakt, om 16:00 UTC
Wind 8 kt uit het noordoosten
Temperatuur 24°C
Vochtigheid 65%
Druk 1016 hPa
Zicht 10 km of meer
Weinig wolken op 3500 ft
Verspreide wolken op 10000 ft

METAR: FAPP 231600Z 05008KT 9999 FEW035 SCT100 24/17 Q1016 NOSIG

Tijdstip: 18:52 (16:52 UTC)

Verwachting

Dit bericht is 37 minuten geleden gemaakt, om 16:15 UTC
Verwachting geldig van 23 om 10 UTC tot 23 om 18 UTC
Wind 10 kt uit het noordoosten
Zicht 10 km of meer
Verspreide wolken op 3500 ft

TAF: FAPP 231615Z 2310/2318 05010KT 9999 SCT035 TX30/2312Z TN21/2318Z

Waarnemingen en weersverwachtingen van meer dan 4000 vliegvelden (METAR en TAF).

De beschikbare stations zijn de gele en rode punten op de kaart.

Ga met uw muis naar het station om de naam te zien.

Klik dan om waarnemingen en weersverwachtingen te zien.

kaart wijzigen: klik op de groene knoppen met een zwart kruis om in te zoomen, op de groene knop met een streepje om uit te zoomen of op de groene pijlen voor aangrenzende kaarten.


METAR-TAF: